Time;durP1;ratioP1;P1;durP2;ratioP2;P2;SDS_P1;SDS_P2;PMS_P1;PMS_P2;Temp;Humidity;BMP_temperature;BMP_pressure;BME280_temperature;BME280_humidity;BME280_pressure;Samples;Min_cycle;Max_cycle;Signal;HPM_P1;HPM_P2
2022/01/22 00:00:47;;;;;;;4.23;2.30;;;;;;;-0.31;100.00;96507.38;5071724;28;20177;-59
2022/01/22 00:03:13;;;;;;;4.27;2.37;;;;;;;-0.33;100.00;96507.69;5071832;28;20214;-57
2022/01/22 00:05:39;;;;;;;5.93;2.33;;;;;;;-0.32;100.00;96500.44;5071432;28;20301;-56
2022/01/22 00:08:04;;;;;;;6.03;2.30;;;;;;;-0.31;100.00;96477.84;5071917;28;20209;-57
2022/01/22 00:10:30;;;;;;;3.33;2.10;;;;;;;-0.32;100.00;96470.91;5056084;28;20202;-58
2022/01/22 00:13:08;;;;;;;5.20;2.30;;;;;;;-0.29;100.00;96465.72;5071849;28;20259;-57
2022/01/22 00:15:34;;;;;;;5.07;2.13;;;;;;;-0.28;100.00;96477.25;5071801;28;20201;-58
2022/01/22 00:17:59;;;;;;;4.43;2.20;;;;;;;-0.27;100.00;96479.63;5071623;28;20212;-58
2022/01/22 00:20:27;;;;;;;4.93;2.00;;;;;;;-0.26;100.00;96477.72;5071676;28;20293;-56
2022/01/22 00:22:53;;;;;;;4.53;2.60;;;;;;;-0.25;100.00;96482.78;5071135;28;20286;-57
2022/01/22 00:25:20;;;;;;;4.97;2.40;;;;;;;-0.22;100.00;96486.72;5071031;28;20293;-60
2022/01/22 00:27:47;;;;;;;4.33;1.97;;;;;;;-0.22;100.00;96478.69;5071726;28;20276;-58
2022/01/22 00:30:20;;;;;;;4.20;2.30;;;;;;;-0.20;100.00;96489.91;5071388;28;20278;-57
2022/01/22 00:32:45;;;;;;;2.73;2.07;;;;;;;-0.16;100.00;96472.91;5071176;28;20244;-57
2022/01/22 00:35:11;;;;;;;3.77;2.00;;;;;;;-0.17;100.00;96475.88;5070877;28;20218;-56
2022/01/22 00:37:42;;;;;;;3.37;2.50;;;;;;;-0.21;100.00;96466.88;5071130;28;20210;-61
2022/01/22 00:40:09;;;;;;;7.33;2.40;;;;;;;-0.16;100.00;96466.72;5071480;28;20198;-53
2022/01/22 00:42:35;;;;;;;4.90;2.33;;;;;;;-0.12;100.00;96471.19;5071082;28;20357;-64
2022/01/22 00:45:01;;;;;;;4.17;2.07;;;;;;;-0.14;100.00;96468.00;5071128;28;20199;-66
2022/01/22 00:47:26;;;;;;;5.57;2.27;;;;;;;-0.16;100.00;96470.22;5070956;28;20195;-65
2022/01/22 00:49:52;;;;;;;4.23;2.40;;;;;;;-0.16;100.00;96464.84;5054149;28;20256;-65
2022/01/22 00:52:17;;;;;;;5.37;2.30;;;;;;;-0.10;100.00;96468.19;5071180;28;20199;-66
2022/01/22 00:54:43;;;;;;;4.73;2.40;;;;;;;-0.14;100.00;96468.00;5070620;28;20201;-64
2022/01/22 00:57:08;;;;;;;3.87;2.40;;;;;;;-0.11;100.00;96458.53;5070667;28;20206;-63
2022/01/22 00:59:34;;;;;;;6.50;2.40;;;;;;;-0.12;100.00;96465.00;5071188;28;20198;-64
2022/01/22 01:01:59;;;;;;;7.27;2.30;;;;;;;-0.06;100.00;96450.38;5070743;28;20245;-63
2022/01/22 01:04:25;;;;;;;5.90;2.70;;;;;;;-0.09;100.00;96442.94;5071010;28;20206;-63
2022/01/22 01:06:50;;;;;;;7.27;2.83;;;;;;;-0.09;100.00;96448.31;5071176;28;20205;-63
2022/01/22 01:09:17;;;;;;;5.17;2.37;;;;;;;-0.11;100.00;96445.13;5070661;28;20199;-63
2022/01/22 01:11:53;;;;;;;5.53;2.33;;;;;;;-0.05;100.00;96446.56;5070697;28;20256;-65
2022/01/22 01:14:26;;;;;;;4.87;2.60;;;;;;;-0.02;100.00;96459.38;5071124;28;20239;-65
2022/01/22 01:17:11;;;;;;;4.20;2.50;;;;;;;-0.09;100.00;96453.66;5053378;28;20211;-59
2022/01/22 01:36:05;;;;;;;5.50;2.33;;;;;;;0.08;100.00;96431.47;5052535;28;20271;-57
2022/01/22 01:38:37;;;;;;;4.90;2.13;;;;;;;0.09;100.00;96428.47;5052455;28;20202;-55
2022/01/22 01:41:11;;;;;;;2.67;2.43;;;;;;;0.06;100.00;96431.78;5035974;28;20205;-56
2022/01/22 01:43:37;;;;;;;5.80;2.30;;;;;;;0.10;100.00;96440.03;5035869;28;20214;-54
2022/01/22 01:46:03;;;;;;;4.47;2.03;;;;;;;0.12;100.00;96452.03;5052529;28;20238;-54
2022/01/22 01:48:32;;;;;;;2.90;2.20;;;;;;;0.13;100.00;96448.22;5048431;28;20218;-52
2022/01/22 01:50:59;;;;;;;3.50;2.07;;;;;;;0.14;100.00;96449.81;5070138;28;20190;-63
2022/01/22 01:53:43;;;;;;;4.90;2.17;;;;;;;0.15;100.00;96432.63;5054499;28;20163;-58
2022/01/22 01:58:55;;;;;;;4.57;2.13;;;;;;;0.21;100.00;96431.34;5054855;28;20734;-71
2022/01/22 02:01:21;;;;;;;3.07;1.80;;;;;;;0.29;100.00;96419.84;5069955;28;20225;-70
2022/01/22 02:03:46;;;;;;;3.70;2.07;;;;;;;0.33;100.00;96436.94;5069821;28;20233;-69
2022/01/22 02:06:11;;;;;;;4.90;2.90;;;;;;;0.30;100.00;96418.75;5069940;28;20200;-69
2022/01/22 02:08:37;;;;;;;3.67;2.10;;;;;;;0.33;100.00;96409.28;5069711;28;20243;-68
2022/01/22 02:11:04;;;;;;;5.53;1.87;;;;;;;0.39;100.00;96406.13;5070071;28;20199;-66
2022/01/22 02:13:48;;;;;;;4.97;2.00;;;;;;;0.35;100.00;96404.38;5070018;28;20195;-69
2022/01/22 02:24:49;;;;;;;4.83;1.70;;;;;;;0.36;100.00;96390.63;5053893;28;20245;-71
2022/01/22 02:27:15;;;;;;;2.77;1.70;;;;;;;0.38;100.00;96396.50;5070062;28;20206;-70
2022/01/22 02:29:41;;;;;;;2.47;1.70;;;;;;;0.40;100.00;96380.06;5069456;28;20247;-71
2022/01/22 02:32:43;;;;;;;2.10;1.37;;;;;;;0.39;100.00;96379.25;5069557;28;20247;-58
2022/01/22 02:35:06;;;;;;;3.17;1.80;;;;;;;0.38;100.00;96385.75;5054787;28;20226;-58
2022/01/22 02:37:36;;;;;;;4.33;1.70;;;;;;;0.36;100.00;96395.22;5069705;28;20298;-58
2022/01/22 02:40:15;;;;;;;4.70;1.87;;;;;;;0.34;100.00;96376.75;5069412;28;20202;-58
2022/01/22 02:42:43;;;;;;;4.10;1.70;;;;;;;0.36;100.00;96385.25;5069597;28;20213;-59
2022/01/22 02:45:11;;;;;;;2.43;1.60;;;;;;;0.41;100.00;96387.00;5069054;28;20185;-59
2022/01/22 02:47:37;;;;;;;2.70;1.53;;;;;;;0.45;100.00;96390.66;5071034;28;20210;-58
2022/01/22 02:50:05;;;;;;;3.50;1.80;;;;;;;0.44;100.00;96387.19;5072568;28;20289;-58
2022/01/22 02:52:31;;;;;;;2.93;1.67;;;;;;;0.44;100.00;96397.94;5072694;28;20210;-58
2022/01/22 02:54:56;;;;;;;3.60;1.60;;;;;;;0.48;100.00;96388.13;5072655;28;20191;-58
2022/01/22 02:57:24;;;;;;;4.07;1.70;;;;;;;0.53;100.00;96385.28;5072606;28;20200;-58
2022/01/22 02:59:49;;;;;;;3.50;1.60;;;;;;;0.47;100.00;96391.91;5072791;28;20198;-58
2022/01/22 03:02:15;;;;;;;3.20;1.40;;;;;;;0.45;100.00;96394.13;5057235;28;20294;-58
2022/01/22 03:04:41;;;;;;;1.97;1.70;;;;;;;0.48;100.00;96393.50;5072744;28;20226;-64
2022/01/22 03:07:07;;;;;;;3.70;1.80;;;;;;;0.50;100.00;96395.88;5072939;28;20207;-70
2022/01/22 03:09:40;;;;;;;4.23;1.63;;;;;;;0.52;100.00;96393.66;5072808;28;20198;-53
2022/01/22 03:22:26;;;;;;;3.07;1.53;;;;;;;0.48;100.00;96403.44;5056907;28;20257;-57
2022/01/22 03:27:35;;;;;;;3.50;1.80;;;;;;;0.46;100.00;96393.03;5057346;28;20210;-56
2022/01/22 03:30:02;;;;;;;2.60;1.60;;;;;;;0.50;100.00;96385.91;5072260;28;20210;-55
2022/01/22 03:32:34;;;;;;;2.20;1.50;;;;;;;0.55;100.00;96388.47;5072006;28;20293;-55
2022/01/22 03:35:09;;;;;;;4.60;1.70;;;;;;;0.56;100.00;96381.19;5072444;28;20203;-57
2022/01/22 03:37:35;;;;;;;3.10;1.60;;;;;;;0.57;100.00;96394.28;5072367;28;20227;-55
2022/01/22 03:40:00;;;;;;;5.20;1.90;;;;;;;0.52;100.00;96378.34;5072405;28;20231;-56
2022/01/22 03:42:26;;;;;;;3.40;1.87;;;;;;;0.57;100.00;96367.44;5072307;28;20218;-66
2022/01/22 03:44:51;;;;;;;2.43;1.50;;;;;;;0.49;100.00;96388.91;5071779;28;20203;-56
2022/01/22 03:47:17;;;;;;;3.50;1.80;;;;;;;0.48;100.00;96384.66;5072052;28;20292;-56
2022/01/22 03:49:42;;;;;;;3.37;1.70;;;;;;;0.42;100.00;96367.91;5072391;28;20195;-57
2022/01/22 03:52:08;;;;;;;2.33;1.70;;;;;;;0.41;100.00;96374.38;5071793;28;20203;-56
2022/01/22 03:54:34;;;;;;;4.03;1.93;;;;;;;0.41;100.00;96366.31;5072167;28;20202;-59
2022/01/22 03:57:00;;;;;;;3.87;1.83;;;;;;;0.40;100.00;96372.78;5071546;28;20206;-60
2022/01/22 03:59:27;;;;;;;2.20;1.53;;;;;;;0.33;100.00;96375.16;5070553;28;20199;-65
2022/01/22 04:04:45;;;;;;;5.90;1.80;;;;;;;0.33;100.00;96380.53;5056186;28;20209;-67
2022/01/22 04:09:42;;;;;;;2.63;2.13;;;;;;;0.23;100.00;96380.81;5056126;28;20218;-68
2022/01/22 04:12:09;;;;;;;3.57;1.90;;;;;;;0.24;100.00;96384.28;5072189;28;20274;-85
2022/01/22 04:14:44;;;;;;;3.93;2.20;;;;;;;0.19;100.00;96369.13;5072038;28;20257;-86
2022/01/22 04:25:28;;;;;;;2.53;2.03;;;;;;;0.14;100.00;96366.56;5014110;28;20202;-60
2022/01/22 04:27:54;;;;;;;3.07;2.10;;;;;;;0.07;100.00;96354.72;5013912;28;20222;-60
2022/01/22 04:30:24;;;;;;;5.03;1.90;;;;;;;0.10;100.00;96354.88;5033472;28;20215;-60
2022/01/22 04:32:50;;;;;;;3.63;2.10;;;;;;;0.13;100.00;96356.94;5071498;28;20190;-60
2022/01/22 04:35:17;;;;;;;3.23;2.00;;;;;;;0.13;100.00;96365.00;5071454;28;20244;-59
2022/01/22 04:37:44;;;;;;;3.50;2.30;;;;;;;0.12;100.00;96354.56;5071127;28;20241;-58
2022/01/22 04:40:09;;;;;;;3.43;2.17;;;;;;;0.11;100.00;96361.84;5070736;28;20210;-79
2022/01/22 04:42:37;;;;;;;4.03;2.23;;;;;;;0.13;100.00;96370.38;5071519;28;20205;-79
2022/01/22 04:45:13;;;;;;;2.60;2.00;;;;;;;0.15;100.00;96373.56;5071013;28;20206;-74
2022/01/22 04:55:39;;;;;;;4.20;2.17;;;;;;;0.03;100.00;96363.41;5055303;28;20229;-57
2022/01/22 04:58:06;;;;;;;4.87;2.30;;;;;;;0.07;100.00;96366.25;5053191;28;20203;-56
2022/01/22 05:00:37;;;;;;;4.17;2.13;;;;;;;0.06;100.00;96359.31;4994280;28;20268;-56
2022/01/22 05:03:04;;;;;;;4.83;2.63;;;;;;;0.05;100.00;96357.72;4977408;28;20263;-57
2022/01/22 05:05:30;;;;;;;3.43;2.50;;;;;;;0.10;100.00;96368.31;4977847;28;20300;-58
2022/01/22 05:07:55;;;;;;;4.57;2.37;;;;;;;0.06;100.00;96358.53;4977407;28;20276;-55
2022/01/22 05:10:21;;;;;;;5.00;2.60;;;;;;;0.11;100.00;96348.44;4992514;28;20204;-56
2022/01/22 05:12:49;;;;;;;3.83;2.37;;;;;;;0.12;100.00;96360.75;4977675;28;20221;-60
2022/01/22 05:15:16;;;;;;;2.80;2.30;;;;;;;0.06;100.00;96356.63;4977956;28;20219;-59
2022/01/22 05:17:43;;;;;;;4.03;2.30;;;;;;;0.10;100.00;96360.25;4993716;28;20220;-52
2022/01/22 05:20:18;;;;;;;3.53;2.63;;;;;;;0.14;100.00;96353.16;4977501;28;20209;-55
2022/01/22 05:25:27;;;;;;;5.07;2.73;;;;;;;0.21;100.00;96347.34;4993642;28;20203;-51
2022/01/22 05:38:34;;;;;;;2.87;2.50;;;;;;;0.17;100.00;96360.59;5054818;28;20213;-52
2022/01/22 05:40:59;;;;;;;3.53;2.83;;;;;;;0.16;100.00;96347.47;5069854;28;20195;-49
2022/01/22 05:43:25;;;;;;;5.77;3.30;;;;;;;0.15;100.00;96357.44;5070062;28;20223;-53
2022/01/22 05:45:50;;;;;;;3.83;2.90;;;;;;;0.13;100.00;96343.53;5069826;28;20209;-54
2022/01/22 05:48:16;;;;;;;3.13;2.70;;;;;;;0.16;100.00;96355.53;5069825;28;20195;-53
2022/01/22 05:50:50;;;;;;;7.23;3.63;;;;;;;0.16;100.00;96358.22;5070315;28;20195;-56
2022/01/22 06:01:10;;;;;;;3.57;2.60;;;;;;;0.19;100.00;96374.50;5054368;28;20217;-58
2022/01/22 06:03:36;;;;;;;6.50;3.23;;;;;;;0.18;100.00;96370.22;5069656;28;20215;-56
2022/01/22 06:06:01;;;;;;;4.33;3.40;;;;;;;0.18;100.00;96378.28;5053411;28;20289;-56
2022/01/22 06:08:52;;;;;;;4.90;3.33;;;;;;;0.16;100.00;96368.94;5032504;28;20192;-60
2022/01/22 06:11:25;;;;;;;5.60;3.27;;;;;;;0.14;100.00;96365.81;5032608;28;20208;-55
2022/01/22 06:13:52;;;;;;;6.57;3.30;;;;;;;0.13;100.00;96367.69;5032582;28;20254;-59
2022/01/22 06:16:20;;;;;;;8.20;3.77;;;;;;;0.13;100.00;96365.00;5032250;28;20204;-56
2022/01/22 06:18:45;;;;;;;8.63;3.90;;;;;;;0.14;100.00;96382.69;5032426;28;20211;-57
2022/01/22 06:21:11;;;;;;;3.87;3.03;;;;;;;0.13;100.00;96369.56;5032125;28;20233;-57
2022/01/22 06:23:38;;;;;;;5.87;3.50;;;;;;;0.15;100.00;96370.88;5031999;28;20231;-56
2022/01/22 06:26:05;;;;;;;6.27;3.43;;;;;;;0.14;100.00;96371.19;5032399;28;20204;-55
2022/01/22 06:28:31;;;;;;;4.87;3.30;;;;;;;0.21;100.00;96388.38;5032358;28;20221;-56
2022/01/22 06:30:57;;;;;;;4.53;3.57;;;;;;;0.22;100.00;96387.31;5031771;28;20221;-56
2022/01/22 06:33:23;;;;;;;5.77;3.43;;;;;;;0.20;100.00;96383.31;5031736;28;20211;-56
2022/01/22 06:35:48;;;;;;;5.43;3.60;;;;;;;0.23;100.00;96396.94;5031788;28;20225;-56
2022/01/22 06:38:14;;;;;;;5.53;3.80;;;;;;;0.26;100.00;96399.00;5031912;28;20298;-56
2022/01/22 06:43:05;;;;;;;6.03;4.03;;;;;;;0.30;100.00;96396.47;5053599;28;20212;-56
2022/01/22 06:45:31;;;;;;;5.70;3.90;;;;;;;0.28;100.00;96404.84;5069669;28;20194;-54
2022/01/22 06:47:57;;;;;;;3.90;3.33;;;;;;;0.35;100.00;96415.91;5069155;28;20195;-67
2022/01/22 06:50:22;;;;;;;6.87;3.70;;;;;;;0.39;100.00;96416.88;5068876;28;20180;-66
2022/01/22 06:52:55;;;;;;;7.00;3.60;;;;;;;0.36;100.00;96406.75;5068827;28;20256;-67
2022/01/22 06:55:30;;;;;;;5.07;3.37;;;;;;;0.37;100.00;96400.28;5069612;28;20197;-66
2022/01/22 06:57:55;;;;;;;4.90;3.80;;;;;;;0.40;100.00;96413.06;5053347;28;20227;-68
2022/01/22 07:00:21;;;;;;;5.23;3.70;;;;;;;0.37;100.00;96408.34;5068862;28;20202;-67
2022/01/22 07:02:46;;;;;;;6.57;5.10;;;;;;;0.39;100.00;96406.13;5068928;28;20237;-67
2022/01/22 07:05:11;;;;;;;5.47;3.70;;;;;;;0.38;100.00;96409.13;5069103;28;20223;-55
2022/01/22 07:07:40;;;;;;;5.20;3.40;;;;;;;0.41;100.00;96403.94;5068952;28;20221;-55
2022/01/22 07:10:10;;;;;;;4.37;3.80;;;;;;;0.44;100.00;96403.31;5052233;28;20209;-57
2022/01/22 07:12:36;;;;;;;6.93;3.90;;;;;;;0.42;100.00;96404.69;5052127;28;20199;-58
2022/01/22 07:15:03;;;;;;;4.00;3.60;;;;;;;0.45;100.00;96415.63;5068789;28;20194;-59
2022/01/22 07:17:34;;;;;;;5.93;4.10;;;;;;;0.45;100.00;96415.63;5069294;28;20184;-57
2022/01/22 07:20:00;;;;;;;6.47;4.23;;;;;;;0.45;100.00;96415.63;5068777;28;20200;-58
2022/01/22 07:22:50;;;;;;;5.10;4.20;;;;;;;0.46;100.00;96411.81;5068456;28;20286;-58
2022/01/22 07:25:16;;;;;;;6.67;4.20;;;;;;;0.47;100.00;96418.78;5068604;28;20198;-60
2022/01/22 07:27:41;;;;;;;6.43;4.27;;;;;;;0.46;100.00;96411.81;5068693;28;20268;-59
2022/01/22 07:30:07;;;;;;;7.83;4.17;;;;;;;0.52;100.00;96418.63;5068554;28;20211;-59
2022/01/22 07:32:36;;;;;;;5.63;4.20;;;;;;;0.55;100.00;96418.00;5068202;28;20231;-60
2022/01/22 07:35:05;;;;;;;5.90;4.50;;;;;;;0.59;100.00;96420.84;5071787;28;20215;-60
2022/01/22 07:37:30;;;;;;;5.37;4.10;;;;;;;0.58;100.00;96414.69;5071776;28;20266;-60
2022/01/22 07:39:56;;;;;;;5.37;4.37;;;;;;;0.58;100.00;96430.03;5072257;28;20179;-55
2022/01/22 07:42:21;;;;;;;6.57;4.60;;;;;;;0.57;100.00;96426.53;5071947;28;20234;-55
2022/01/22 07:44:46;;;;;;;6.70;4.50;;;;;;;0.53;100.00;96430.16;5071653;28;20232;-56
2022/01/22 07:47:12;;;;;;;6.43;4.07;;;;;;;0.55;100.00;96444.88;5072167;28;20242;-56
2022/01/22 07:49:40;;;;;;;5.50;4.10;;;;;;;0.53;100.00;96443.59;5054870;28;20203;-55
2022/01/22 07:52:06;;;;;;;7.20;4.83;;;;;;;0.50;100.00;96453.06;5072154;28;20207;-55
2022/01/22 07:54:32;;;;;;;7.00;4.63;;;;;;;0.49;100.00;96451.50;5071675;28;20197;-58
2022/01/22 07:56:58;;;;;;;6.27;4.40;;;;;;;0.51;100.00;96457.31;5071375;28;20199;-56
2022/01/22 07:59:23;;;;;;;5.90;4.47;;;;;;;0.48;100.00;96449.91;5072089;28;20205;-55
2022/01/22 08:01:49;;;;;;;6.37;4.53;;;;;;;0.49;100.00;96454.19;5071673;28;20208;-67
2022/01/22 08:04:16;;;;;;;6.60;4.23;;;;;;;0.48;100.00;96441.06;5071677;28;20215;-66
2022/01/22 08:06:41;;;;;;;6.23;4.70;;;;;;;0.50;100.00;96445.00;5071694;28;20257;-65
2022/01/22 08:09:06;;;;;;;6.57;4.70;;;;;;;0.52;100.00;96437.44;5071819;28;20194;-65
2022/01/22 08:11:32;;;;;;;5.53;4.40;;;;;;;0.53;100.00;96440.91;5071545;28;20181;-67
2022/01/22 08:13:57;;;;;;;5.73;4.70;;;;;;;0.52;100.00;96442.81;5071718;28;20200;-64
2022/01/22 08:16:22;;;;;;;5.63;4.50;;;;;;;0.56;100.00;96443.78;5071776;28;20207;-65
2022/01/22 08:18:47;;;;;;;5.40;4.50;;;;;;;0.53;100.00;96448.97;5071562;28;20203;-55
2022/01/22 08:21:13;;;;;;;6.60;4.37;;;;;;;0.52;100.00;96453.56;5071632;28;20209;-52
2022/01/22 08:23:38;;;;;;;6.50;5.07;;;;;;;0.55;100.00;96447.56;5071163;28;20223;-56
2022/01/22 08:26:07;;;;;;;9.43;5.10;;;;;;;0.68;100.00;96452.00;5071397;28;20218;-49
2022/01/22 08:31:47;;;;;;;6.73;4.97;;;;;;;0.63;100.00;96460.22;5055893;28;20197;-54
2022/01/22 08:36:47;;;;;;;7.50;4.90;;;;;;;0.64;100.00;96455.63;5055821;28;20206;-54
2022/01/22 08:39:17;;;;;;;6.13;4.70;;;;;;;0.61;100.00;96465.09;5071576;28;20190;-63
2022/01/22 08:41:43;;;;;;;6.60;5.40;;;;;;;0.61;100.00;96462.41;5071040;28;20279;-62
2022/01/22 08:44:10;;;;;;;7.60;5.13;;;;;;;0.62;100.00;96471.28;5070961;28;20198;-62
2022/01/22 08:46:37;;;;;;;8.07;4.93;;;;;;;0.62;100.00;96465.91;5071361;28;20199;-61
2022/01/22 08:49:07;;;;;;;6.97;5.07;;;;;;;0.62;100.00;96472.06;5071058;28;20191;-61
2022/01/22 08:51:33;;;;;;;6.40;4.70;;;;;;;0.59;100.00;96470.00;5071156;28;20209;-62
2022/01/22 08:54:02;;;;;;;6.73;4.87;;;;;;;0.62;100.00;96485.47;5071148;28;20285;-62
2022/01/22 08:56:28;;;;;;;8.83;5.40;;;;;;;0.63;100.00;96481.72;5070478;28;20235;-49
2022/01/22 08:58:54;;;;;;;9.67;5.97;;;;;;;0.66;100.00;96481.09;5070718;28;20196;-52
2022/01/22 09:01:20;;;;;;;7.00;5.53;;;;;;;0.70;100.00;96486.63;5070469;28;20291;-50
2022/01/22 09:03:48;;;;;;;7.13;5.53;;;;;;;0.66;100.00;96497.22;5070478;28;20298;-52
2022/01/22 09:06:13;;;;;;;7.77;4.73;;;;;;;0.69;100.00;96495.78;5070472;28;20207;-49
2022/01/22 09:08:39;;;;;;;8.67;5.80;;;;;;;0.74;100.00;96499.13;5070341;28;20195;-53
2022/01/22 09:11:06;;;;;;;8.33;5.47;;;;;;;0.73;100.00;96486.78;5070623;28;20201;-48
2022/01/22 09:13:32;;;;;;;8.70;6.17;;;;;;;0.75;100.00;96489.94;5070448;28;20198;-57
2022/01/22 09:15:58;;;;;;;8.10;5.67;;;;;;;0.77;100.00;96487.75;5070527;28;20196;-64
2022/01/22 09:18:23;;;;;;;8.60;5.43;;;;;;;0.75;100.00;96500.69;5070800;28;20206;-62
2022/01/22 09:23:14;;;;;;;9.53;6.50;;;;;;;0.81;100.00;96507.53;5055227;28;20237;-64
2022/01/22 09:25:40;;;;;;;8.90;5.13;;;;;;;0.89;100.00;96508.63;5070418;28;20194;-63
2022/01/22 09:28:07;;;;;;;9.03;5.73;;;;;;;0.90;100.00;96513.69;5070780;28;20198;-64
2022/01/22 09:30:34;;;;;;;8.37;5.97;;;;;;;0.96;100.00;96509.75;5070520;28;20204;-51
2022/01/22 09:32:59;;;;;;;7.90;6.00;;;;;;;0.90;100.00;96518.25;5070357;28;20214;-61
2022/01/22 09:35:24;;;;;;;8.67;5.80;;;;;;;0.97;100.00;96519.41;5070479;28;20200;-62
2022/01/22 09:37:50;;;;;;;8.20;6.20;;;;;;;1.01;100.00;96520.34;5070117;28;20277;-62
2022/01/22 09:40:15;;;;;;;7.00;5.37;;;;;;;1.01;100.00;96520.34;5070158;28;20199;-61
2022/01/22 09:42:41;;;;;;;8.10;6.10;;;;;;;1.00;100.00;96518.78;5069599;28;20223;-61
2022/01/22 09:45:08;;;;;;;9.50;5.37;;;;;;;0.98;100.00;96515.59;5070452;28;20574;-61
2022/01/22 09:47:35;;;;;;;8.23;5.80;;;;;;;0.98;100.00;96514.81;5069495;28;20257;-61
2022/01/22 09:50:01;;;;;;;10.67;7.00;;;;;;;0.97;100.00;96524.78;5069983;28;20290;-72
2022/01/22 09:52:27;;;;;;;8.47;6.07;;;;;;;1.01;100.00;96530.31;5069789;28;20206;-60
2022/01/22 09:54:53;;;;;;;6.97;5.40;;;;;;;1.03;100.00;96534.28;5070082;28;20219;-63
2022/01/22 09:57:18;;;;;;;10.00;6.40;;;;;;;1.07;100.00;96535.22;5069300;28;20186;-63
2022/01/22 09:59:44;;;;;;;8.87;6.20;;;;;;;1.02;100.00;96532.69;5070152;28;20200;-64
2022/01/22 10:02:11;;;;;;;9.93;6.67;;;;;;;1.09;100.00;96543.75;5070139;28;20222;-64
2022/01/22 10:04:38;;;;;;;7.83;5.80;;;;;;;1.08;100.00;96547.56;5053383;28;20249;-64
2022/01/22 10:07:04;;;;;;;7.67;5.20;;;;;;;1.08;100.00;96558.31;5069947;28;20206;-47
2022/01/22 10:09:36;;;;;;;6.43;5.37;;;;;;;1.08;100.00;96552.13;5069680;28;20204;-50
2022/01/22 10:12:10;;;;;;;8.80;5.93;;;;;;;1.10;100.00;96548.06;5069250;28;20200;-51
2022/01/22 10:15:03;;;;;;;9.60;5.47;;;;;;;1.08;100.00;96547.56;5069614;28;20199;-48
2022/01/22 10:17:54;;;;;;;9.70;5.73;;;;;;;1.07;100.00;96556.75;5069491;28;20220;-52
2022/01/22 10:20:23;;;;;;;8.20;5.17;;;;;;;1.12;100.00;96553.91;5069867;28;20216;-52
2022/01/22 10:22:49;;;;;;;7.97;5.57;;;;;;;1.12;100.00;96558.47;5052573;28;20297;-53
2022/01/22 10:25:45;;;;;;;9.00;5.77;;;;;;;1.14;100.00;96551.69;5052506;28;20218;-56
2022/01/22 10:28:17;;;;;;;6.20;5.03;;;;;;;1.12;100.00;96553.09;5052797;28;20199;-63
2022/01/22 10:30:44;;;;;;;8.73;5.30;;;;;;;1.09;100.00;96553.75;5069455;28;20306;-53
2022/01/22 10:33:28;;;;;;;7.30;5.67;;;;;;;1.13;100.00;96550.09;5069454;28;20207;-53
2022/01/22 10:36:16;;;;;;;8.07;5.40;;;;;;;1.13;100.00;96558.16;5069256;28;20196;-53
2022/01/22 10:38:44;;;;;;;10.97;6.47;;;;;;;1.16;100.00;96559.47;5053313;28;20193;-53
2022/01/22 10:41:11;;;;;;;9.37;6.23;;;;;;;1.19;100.00;96548.84;5069192;28;20203;-52
2022/01/22 10:43:42;;;;;;;11.53;7.87;;;;;;;1.19;100.00;96546.16;5069037;28;20217;-54
2022/01/22 10:46:20;;;;;;;10.97;7.57;;;;;;;1.20;100.00;96536.97;5069698;28;20255;-67
2022/01/22 10:48:57;;;;;;;7.70;5.43;;;;;;;1.23;100.00;96544.41;5069217;28;20299;-65
2022/01/22 10:51:24;;;;;;;6.67;5.23;;;;;;;1.20;100.00;96550.41;5053174;28;20222;-66
2022/01/22 10:54:02;;;;;;;10.47;5.87;;;;;;;1.20;100.00;96539.66;5069343;28;20186;-66
2022/01/22 10:56:31;;;;;;;7.50;5.37;;;;;;;1.14;100.00;96535.56;5068683;28;20194;-65
2022/01/22 10:59:05;;;;;;;11.77;5.60;;;;;;;1.13;100.00;96541.25;5068922;28;20231;-65
2022/01/22 11:01:43;;;;;;;10.07;6.13;;;;;;;1.20;100.00;96538.88;5069458;28;20218;-64
2022/01/22 11:04:11;;;;;;;9.87;5.93;;;;;;;1.15;100.00;96542.50;5052261;28;20207;-53
2022/01/22 11:06:40;;;;;;;8.50;5.40;;;;;;;1.18;100.00;96544.59;5068899;28;20201;-64
2022/01/22 11:09:07;;;;;;;7.13;5.23;;;;;;;1.24;100.00;96546.00;5054539;28;20188;-62
2022/01/22 11:11:37;;;;;;;7.77;5.73;;;;;;;1.28;100.00;96530.03;5072819;28;20170;-61
2022/01/22 11:14:05;;;;;;;7.47;5.20;;;;;;;1.38;100.00;96552.03;5072534;28;20674;-60
2022/01/22 11:16:32;;;;;;;8.70;5.27;;;;;;;1.43;100.00;96565.34;5072244;28;20202;-60
2022/01/22 11:18:58;;;;;;;8.30;5.20;;;;;;;1.38;100.00;96557.41;5072422;28;20238;-62
2022/01/22 11:21:24;;;;;;;8.40;5.30;;;;;;;1.42;100.00;96563.72;5071973;28;20249;-56
2022/01/22 11:23:51;;;;;;;5.73;4.70;;;;;;;1.38;100.00;96560.09;5072148;28;20298;-61
2022/01/22 11:26:18;;;;;;;7.90;5.63;;;;;;;1.44;100.00;96556.16;5071987;28;20201;-62
2022/01/22 11:28:45;;;;;;;7.40;5.20;;;;;;;1.43;100.00;96565.34;5072660;28;20271;-61
2022/01/22 11:31:15;;;;;;;7.93;5.10;;;;;;;1.46;100.00;96564.69;5072188;28;20187;-62
2022/01/22 11:33:44;;;;;;;10.40;7.00;;;;;;;1.41;100.00;96570.22;5072246;28;20205;-62
2022/01/22 11:36:16;;;;;;;10.30;5.87;;;;;;;1.39;100.00;96572.47;5071544;28;20290;-61
2022/01/22 11:39:09;;;;;;;8.07;5.30;;;;;;;1.45;100.00;96571.19;5072471;28;20223;-54
2022/01/22 11:41:50;;;;;;;8.23;5.43;;;;;;;1.39;100.00;96580.53;5034434;28;20209;-49
2022/01/22 11:44:24;;;;;;;9.10;5.00;;;;;;;1.36;100.00;96570.41;5034598;28;20208;-56
2022/01/22 11:46:58;;;;;;;8.57;5.30;;;;;;;1.28;100.00;96573.06;5034072;28;20218;-53
2022/01/22 11:49:29;;;;;;;8.07;5.47;;;;;;;1.26;100.00;96562.63;5017855;28;20215;-50
2022/01/22 11:52:10;;;;;;;6.33;4.77;;;;;;;1.29;100.00;96556.63;5034118;28;20216;-51
2022/01/22 11:54:55;;;;;;;8.07;5.83;;;;;;;1.33;100.00;96554.88;5034691;28;20250;-53
2022/01/22 11:57:22;;;;;;;7.03;5.43;;;;;;;1.42;100.00;96552.19;5017863;28;20219;-52
2022/01/22 11:59:49;;;;;;;7.50;5.13;;;;;;;1.38;100.00;96552.03;5018003;28;20208;-59
2022/01/22 12:02:16;;;;;;;8.67;5.70;;;;;;;1.41;100.00;96562.16;5017556;28;20245;-49
2022/01/22 12:04:41;;;;;;;9.73;5.70;;;;;;;1.48;100.00;96565.16;5034086;28;20203;-50
2022/01/22 12:07:07;;;;;;;6.27;5.10;;;;;;;1.52;100.00;96558.03;5034260;28;20293;-51
2022/01/22 12:15:49;;;;;;;7.87;5.70;;;;;;;1.49;100.00;96558.66;5055824;28;20204;-49
2022/01/22 12:18:17;;;;;;;6.60;4.87;;;;;;;1.45;100.00;96563.09;5056335;28;20194;-58
2022/01/22 12:21:31;;;;;;;8.77;5.73;;;;;;;1.47;100.00;96565.47;5071263;28;20199;-63
2022/01/22 12:23:29;;;;;;;8.23;5.10;;;;;;;1.46;100.00;96553.91;5055311;28;20215;-63
2022/01/22 12:25:55;;;;;;;7.40;5.40;;;;;;;1.45;100.00;96557.72;5054850;28;20281;-64
2022/01/22 12:28:41;;;;;;;8.77;5.80;;;;;;;1.46;100.00;96542.38;5071599;28;20212;-62
2022/01/22 12:31:10;;;;;;;9.53;5.60;;;;;;;1.49;100.00;96558.66;5071358;28;20232;-63
2022/01/22 12:33:38;;;;;;;9.93;5.73;;;;;;;1.53;100.00;96562.31;5070813;28;20215;-62
2022/01/22 12:36:06;;;;;;;9.77;5.77;;;;;;;1.61;100.00;96553.47;5054855;28;20219;-55
2022/01/22 12:41:14;;;;;;;8.40;6.33;;;;;;;1.56;100.00;96561.69;5055656;28;20192;-59
2022/01/22 12:43:43;;;;;;;8.40;6.27;;;;;;;1.57;100.00;96554.41;5054692;28;20250;-60
2022/01/22 12:46:09;;;;;;;8.57;6.07;;;;;;;1.57;100.00;96557.88;5071573;28;21108;-59
2022/01/22 12:48:36;;;;;;;10.00;5.33;;;;;;;1.56;100.00;96560.91;5070814;28;20197;-59
2022/01/22 12:51:04;;;;;;;6.53;5.60;;;;;;;1.52;100.00;96560.72;5071091;28;20194;-59
2022/01/22 12:53:32;;;;;;;7.60;5.77;;;;;;;1.49;100.00;96553.28;5070776;28;20202;-62
2022/01/22 12:58:30;;;;;;;9.87;6.13;;;;;;;1.51;100.00;96551.09;5055638;28;20207;-59
2022/01/22 13:01:14;;;;;;;10.23;6.40;;;;;;;1.57;100.00;96560.56;5070934;28;20198;-63
2022/01/22 13:03:45;;;;;;;9.10;5.57;;;;;;;1.54;100.00;96553.16;5054412;28;20268;-64
2022/01/22 13:06:10;;;;;;;8.43;5.90;;;;;;;1.58;100.00;96553.28;5071003;28;20193;-64
2022/01/22 13:08:36;;;;;;;8.03;5.87;;;;;;;1.51;100.00;96553.78;5071181;28;20176;-65
2022/01/22 13:11:07;;;;;;;10.13;6.13;;;;;;;1.55;100.00;96546.66;5070585;28;20203;-64
2022/01/22 13:13:34;;;;;;;7.93;5.63;;;;;;;1.49;100.00;96547.91;5071029;28;20199;-66
2022/01/22 13:16:13;;;;;;;9.40;6.13;;;;;;;1.49;100.00;96547.13;5070853;28;20203;-64
2022/01/22 13:18:47;;;;;;;8.17;5.87;;;;;;;1.44;100.00;96550.78;5071285;28;20202;-63
2022/01/22 13:21:15;;;;;;;10.00;5.90;;;;;;;1.45;100.00;96554.25;5070960;28;20201;-64
2022/01/22 13:23:41;;;;;;;8.57;5.63;;;;;;;1.40;100.00;96544.44;5070528;28;20288;-63